Time;durP1;ratioP1;P1;durP2;ratioP2;P2;SDS_P1;SDS_P2;PMS_P1;PMS_P2;Temp;Humidity;BMP_temperature;BMP_pressure;BME280_temperature;BME280_humidity;BME280_pressure;Samples;Min_cycle;Max_cycle;Signal;HPM_P1;HPM_P2
2022/07/28 00:01:44;;;;;;;9.13;3.00;;;17.20;1.00;;;;;;5049196;28;20229;-56
2022/07/28 00:04:09;;;;;;;3.67;3.10;;;17.20;1.00;;;;;;5048157;28;20188;-56
2022/07/28 00:06:35;;;;;;;4.30;2.57;;;;;;;;;;5048056;28;20215;-54
2022/07/28 00:09:01;;;;;;;5.80;2.43;;;;;;;;;;5049049;28;20223;-54
2022/07/28 00:11:27;;;;;;;4.70;2.63;;;;;;;;;;5048562;28;20981;-56
2022/07/28 00:13:53;;;;;;;3.87;2.80;;;;;;;;;;5049410;28;20469;-53
2022/07/28 00:16:19;;;;;;;5.57;2.07;;;17.00;1.00;;;;;;5049026;28;20446;-55
2022/07/28 00:18:44;;;;;;;4.77;2.73;;;16.80;1.00;;;;;;5049803;28;20438;-55
2022/07/28 00:21:10;;;;;;;5.00;2.60;;;16.90;1.00;;;;;;5048511;28;20629;-55
2022/07/28 00:23:36;;;;;;;4.97;2.80;;;;;;;;;;5049781;28;20215;-55
2022/07/28 00:26:05;;;;;;;6.17;3.60;;;;;;;;;;5047905;28;20299;-55
2022/07/28 00:28:30;;;;;;;3.47;2.70;;;16.80;1.00;;;;;;5049257;28;21345;-53
2022/07/28 00:30:56;;;;;;;5.57;2.70;;;;;;;;;;5052355;28;20537;-54
2022/07/28 00:33:22;;;;;;;4.70;2.87;;;;;;;;;;5049136;28;20646;-56
2022/07/28 00:35:48;;;;;;;3.00;2.70;;;;;;;;;;5047074;28;20490;-54
2022/07/28 00:38:14;;;;;;;4.33;2.97;;;;;;;;;;5049508;28;20450;-57
2022/07/28 00:43:24;;;;;;;3.63;2.63;;;16.70;1.00;;;;;;5053403;28;20546;-53
2022/07/28 00:45:50;;;;;;;4.73;3.23;;;;;;;;;;5052343;28;20560;-55
2022/07/28 00:48:16;;;;;;;8.93;3.13;;;16.40;1.00;;;;;;5052915;28;20180;-53
2022/07/28 00:50:43;;;;;;;3.53;2.80;;;16.40;1.00;;;;;;5052233;28;20442;-53
2022/07/28 00:53:08;;;;;;;4.17;3.00;;;16.30;1.00;;;;;;5053585;28;20279;-56
2022/07/28 00:55:35;;;;;;;3.73;3.20;;;16.40;1.00;;;;;;5052861;28;20869;-56
2022/07/28 00:58:00;;;;;;;4.83;2.70;;;16.30;1.00;;;;;;5053540;28;20233;-55
2022/07/28 01:00:26;;;;;;;6.13;3.20;;;16.20;1.00;;;;;;5049794;28;20806;-54
2022/07/28 01:02:52;;;;;;;4.53;3.20;;;;;;;;;;5055402;28;20618;-55
2022/07/28 01:05:18;;;;;;;6.37;3.13;;;16.30;1.00;;;;;;5051214;28;20188;-54
2022/07/28 01:08:04;;;;;;;8.10;2.47;;;16.20;1.00;;;;;;5052829;28;20468;-54
2022/07/28 01:10:59;;;;;;;4.20;2.50;;;16.20;1.00;;;;;;5050135;28;20496;-55
2022/07/28 01:13:37;;;;;;;4.73;2.40;;;16.20;1.00;;;;;;5049849;28;20833;-56
2022/07/28 01:16:06;;;;;;;2.60;2.37;;;16.20;1.00;;;;;;5057717;28;20438;-56
2022/07/28 01:18:52;;;;;;;3.10;2.10;;;15.90;1.00;;;;;;5051828;28;20450;-55
2022/07/28 01:21:24;;;;;;;3.53;2.07;;;16.10;1.00;;;;;;5052271;28;20959;-54
2022/07/28 01:24:11;;;;;;;4.70;2.97;;;16.10;1.00;;;;;;5052099;28;20504;-56
2022/07/28 01:26:42;;;;;;;3.43;2.23;;;16.10;1.00;;;;;;5052354;28;20461;-56
2022/07/28 01:29:46;;;;;;;3.37;2.30;;;16.10;1.00;;;;;;5051930;28;20496;-54
2022/07/28 01:32:22;;;;;;;2.60;2.40;;;16.00;1.00;;;;;;5049703;28;20446;-56
2022/07/28 01:34:48;;;;;;;3.87;2.10;;;;;;;;;;5057178;28;20482;-56
2022/07/28 01:37:22;;;;;;;2.93;2.30;;;15.90;1.00;;;;;;5051974;28;20790;-53
2022/07/28 01:39:52;;;;;;;4.73;2.40;;;16.10;1.00;;;;;;5052811;28;20474;-55
2022/07/28 01:42:22;;;;;;;4.13;2.10;;;15.60;1.00;;;;;;5051984;28;20500;-55
2022/07/28 01:44:51;;;;;;;3.47;2.40;;;15.80;1.00;;;;;;5060150;28;21781;-53
2022/07/28 01:47:18;;;;;;;2.97;2.07;;;15.70;1.00;;;;;;5051360;28;20474;-55
2022/07/28 01:49:46;;;;;;;8.50;2.77;;;15.70;1.00;;;;;;5052443;28;20435;-56
2022/07/28 01:52:14;;;;;;;4.40;2.97;;;15.70;1.00;;;;;;5053424;28;20473;-54
2022/07/28 01:54:42;;;;;;;5.20;2.80;;;15.90;1.00;;;;;;5049990;28;20457;-56
2022/07/28 01:57:13;;;;;;;7.33;2.90;;;15.70;1.00;;;;;;5050249;28;20449;-52
2022/07/28 01:59:39;;;;;;;3.93;2.80;;;15.60;1.00;;;;;;5050278;28;21104;-56
2022/07/28 02:02:07;;;;;;;7.20;3.07;;;15.60;1.00;;;;;;5053694;28;20439;-55
2022/07/28 02:04:36;;;;;;;2.93;2.63;;;15.70;1.00;;;;;;5051141;28;20534;-56
2022/07/28 02:07:02;;;;;;;5.30;2.73;;;15.50;1.00;;;;;;5050650;28;20458;-56
2022/07/28 02:09:30;;;;;;;3.70;2.50;;;15.50;1.00;;;;;;5051823;28;20454;-52
2022/07/28 02:11:56;;;;;;;6.93;3.30;;;15.60;1.00;;;;;;5053011;28;20509;-55
2022/07/28 02:14:24;;;;;;;6.20;2.83;;;15.30;1.00;;;;;;5051386;28;20453;-54
2022/07/28 02:17:12;;;;;;;3.90;2.60;;;15.50;1.00;;;;;;5052070;28;20438;-55
2022/07/28 02:19:39;;;;;;;5.07;2.70;;;15.40;1.00;;;;;;5050670;28;20565;-56
2022/07/28 02:22:06;;;;;;;5.00;2.43;;;15.40;1.00;;;;;;5052090;28;20431;-55
2022/07/28 02:24:33;;;;;;;5.23;3.23;;;15.30;1.00;;;;;;5050341;28;20919;-54
2022/07/28 02:27:14;;;;;;;5.13;3.10;;;15.30;1.00;;;;;;5051072;28;20493;-55
2022/07/28 02:29:56;;;;;;;2.50;2.30;;;15.30;1.00;;;;;;5050522;28;20450;-56
2022/07/28 02:32:47;;;;;;;2.47;2.17;;;15.20;1.00;;;;;;5050128;28;20450;-54
2022/07/28 02:35:24;;;;;;;3.70;2.93;;;15.30;1.00;;;;;;5049154;28;20517;-54
2022/07/28 02:37:58;;;;;;;4.43;2.50;;;15.20;1.00;;;;;;5051722;28;20442;-54
2022/07/28 02:40:29;;;;;;;5.20;2.77;;;15.20;1.00;;;;;;5050425;28;20442;-57
2022/07/28 02:42:57;;;;;;;4.10;3.20;;;15.30;1.00;;;;;;5054369;28;20469;-55
2022/07/28 02:45:25;;;;;;;4.53;2.57;;;15.30;1.00;;;;;;5049394;28;20446;-56
2022/07/28 02:47:55;;;;;;;7.17;3.00;;;15.00;1.00;;;;;;5048943;28;20812;-56
2022/07/28 02:50:24;;;;;;;2.93;2.73;;;15.20;1.00;;;;;;5050130;28;20457;-55
2022/07/28 02:52:53;;;;;;;8.77;2.50;;;15.20;1.00;;;;;;5050507;28;20442;-55
2022/07/28 02:55:18;;;;;;;4.27;3.20;;;15.00;1.00;;;;;;5050821;28;20435;-53
2022/07/28 02:57:45;;;;;;;5.90;2.73;;;15.00;1.00;;;;;;5050974;28;20765;-55
2022/07/28 03:00:11;;;;;;;3.03;2.70;;;15.00;1.00;;;;;;5049604;28;21089;-55
2022/07/28 03:02:38;;;;;;;3.63;2.97;;;;;;;;;;5050562;28;20918;-55
2022/07/28 03:05:04;;;;;;;4.07;2.97;;;15.00;1.00;;;;;;5046987;28;20461;-55
2022/07/28 03:07:31;;;;;;;4.63;3.27;;;12.30;1.00;;;;;;5051001;28;20458;-54
2022/07/28 03:09:58;;;;;;;3.30;2.70;;;14.50;1.00;;;;;;5050176;28;20450;-54
2022/07/28 03:12:25;;;;;;;5.00;2.77;;;14.90;1.00;;;;;;5067320;28;20440;-55
2022/07/28 03:14:51;;;;;;;5.47;2.60;;;14.90;1.00;;;;;;5048354;28;20435;-55
2022/07/28 03:17:18;;;;;;;6.67;2.70;;;14.30;1.00;;;;;;5049617;28;20943;-55
2022/07/28 03:19:44;;;;;;;4.20;2.60;;;;;;;;;;5049340;28;20485;-56
2022/07/28 03:22:10;;;;;;;8.03;3.40;;;14.60;1.00;;;;;;5049402;28;20457;-55
2022/07/28 03:24:38;;;;;;;3.73;2.70;;;14.60;1.00;;;;;;5050129;28;20548;-56
2022/07/28 03:27:07;;;;;;;3.80;2.80;;;;;;;;;;5050364;28;20952;-56
2022/07/28 03:29:34;;;;;;;4.83;3.40;;;;;;;;;;5049816;28;20446;-54
2022/07/28 03:32:00;;;;;;;4.50;2.70;;;14.40;1.00;;;;;;5049592;28;20969;-55
2022/07/28 03:34:26;;;;;;;5.90;3.67;;;;;;;;;;5049190;28;20482;-53
2022/07/28 03:37:00;;;;;;;6.47;3.43;;;14.40;1.00;;;;;;5057564;28;20446;-55
2022/07/28 03:39:28;;;;;;;5.07;3.07;;;14.50;1.00;;;;;;5050149;28;20461;-55
2022/07/28 03:41:57;;;;;;;4.67;3.73;;;14.40;1.00;;;;;;5049851;28;20939;-54
2022/07/28 03:44:24;;;;;;;5.40;4.43;;;14.60;1.00;;;;;;5047547;28;20450;-55
2022/07/28 03:46:50;;;;;;;6.20;3.23;;;;;;;;;;5048650;28;20907;-56
2022/07/28 03:49:16;;;;;;;6.17;3.20;;;;;;;;;;5049530;28;20541;-55
2022/07/28 03:51:42;;;;;;;5.60;3.10;;;;;;;;;;5047119;28;20743;-53
2022/07/28 03:54:08;;;;;;;4.07;2.97;;;;;;;;;;5049409;28;20439;-54
2022/07/28 03:56:34;;;;;;;4.40;3.10;;;;;;;;;;5049919;28;20434;-55
2022/07/28 03:59:00;;;;;;;4.20;2.97;;;;;;;;;;5049361;28;20458;-52
2022/07/28 04:01:26;;;;;;;3.27;2.57;;;14.10;1.00;;;;;;5049719;28;20499;-56
2022/07/28 04:03:52;;;;;;;4.83;3.30;;;;;;;;;;5050787;28;20492;-57
2022/07/28 04:06:18;;;;;;;8.20;3.70;;;;;;;;;;5048318;28;20212;-52
2022/07/28 04:08:44;;;;;;;4.20;3.07;;;;;;;;;;5050126;28;20457;-56
2022/07/28 04:11:10;;;;;;;4.27;3.20;;;;;;;;;;5062788;28;20449;-55
2022/07/28 04:13:36;;;;;;;4.33;2.97;;;;;;;;;;5069988;28;20482;-54
2022/07/28 04:16:02;;;;;;;5.20;3.60;;;;;;;;;;5051904;28;20453;-57
2022/07/28 04:18:28;;;;;;;8.07;3.43;;;;;;;;;;5053880;28;20455;-53
2022/07/28 04:20:54;;;;;;;5.50;3.20;;;;;;;;;;5049167;28;20546;-54
2022/07/28 04:23:21;;;;;;;8.70;3.17;;;;;;;;;;5049981;28;20447;-56
2022/07/28 04:25:47;;;;;;;4.50;3.10;;;;;;;;;;5048044;28;20489;-54
2022/07/28 04:28:13;;;;;;;4.03;3.33;;;15.10;1.00;;;;;;5048308;28;20454;-56
2022/07/28 04:30:38;;;;;;;3.80;3.10;;;15.20;1.00;;;;;;5049255;28;20504;-55
2022/07/28 04:33:04;;;;;;;8.20;3.73;;;15.20;1.00;;;;;;5048557;28;20442;-56
2022/07/28 04:35:30;;;;;;;4.33;3.43;;;;;;;;;;5046087;28;20302;-57
2022/07/28 04:37:59;;;;;;;5.70;3.20;;;;;;;;;;5049039;28;20499;-53
2022/07/28 04:40:26;;;;;;;4.07;3.67;;;15.20;1.00;;;;;;5049033;28;20439;-54
2022/07/28 04:42:51;;;;;;;4.13;3.73;;;15.20;1.00;;;;;;5046980;28;20464;-54
2022/07/28 04:45:17;;;;;;;6.30;3.10;;;15.30;1.00;;;;;;5049177;28;20446;-55
2022/07/28 04:47:42;;;;;;;4.20;3.27;;;15.30;1.00;;;;;;5048423;28;20233;-54
2022/07/28 04:50:10;;;;;;;3.20;2.90;;;15.30;1.00;;;;;;5052147;28;20188;-55
2022/07/28 04:52:37;;;;;;;6.07;3.50;;;15.30;1.00;;;;;;5050539;28;20526;-55
2022/07/28 04:55:05;;;;;;;4.07;3.23;;;15.40;1.00;;;;;;5058152;28;20447;-53
2022/07/28 04:57:31;;;;;;;4.60;3.10;;;15.40;1.00;;;;;;5049685;28;22292;-55
2022/07/28 04:59:59;;;;;;;5.27;3.30;;;15.60;1.00;;;;;;5045073;28;20492;-55
2022/07/28 05:02:25;;;;;;;5.67;3.40;;;15.50;1.00;;;;;;5051741;28;20279;-53
2022/07/28 05:04:51;;;;;;;7.07;3.77;;;15.90;1.00;;;;;;5048296;28;20472;-54
2022/07/28 05:07:17;;;;;;;7.33;3.90;;;;;;;;;;5049081;28;20881;-53
2022/07/28 05:09:43;;;;;;;4.40;3.33;;;;;;;;;;5046828;28;20936;-54
2022/07/28 05:12:09;;;;;;;6.50;4.23;;;;;;;;;;5048466;28;20497;-54
2022/07/28 05:14:35;;;;;;;6.40;3.63;;;;;;;;;;5047615;28;20489;-55
2022/07/28 05:17:00;;;;;;;5.50;4.00;;;16.10;1.00;;;;;;5048840;28;20824;-56
2022/07/28 05:19:26;;;;;;;5.40;3.77;;;;;;;;;;5047502;28;20451;-54
2022/07/28 05:21:52;;;;;;;6.33;3.43;;;;;;;;;;5053739;28;20192;-56
2022/07/28 05:24:18;;;;;;;7.43;3.87;;;16.30;1.00;;;;;;5051252;28;20454;-55
2022/07/28 05:26:44;;;;;;;5.20;4.10;;;;;;;;;;5058929;28;20499;-53
2022/07/28 05:29:10;;;;;;;7.37;5.13;;;17.00;1.00;;;;;;5064615;28;20657;-56
2022/07/28 05:31:36;;;;;;;6.10;3.43;;;;;;;;;;5061287;28;20460;-54
2022/07/28 05:34:02;;;;;;;8.13;4.33;;;;;;;;;;5058245;28;20963;-56
2022/07/28 05:36:28;;;;;;;5.43;3.87;;;;;;;;;;5052148;28;20455;-57
2022/07/28 05:38:53;;;;;;;5.07;3.97;;;17.10;1.00;;;;;;5052970;28;20443;-56
2022/07/28 05:41:19;;;;;;;5.87;3.80;;;17.30;1.00;;;;;;5052994;28;20877;-57
2022/07/28 05:43:44;;;;;;;6.47;4.37;;;17.50;1.00;;;;;;5052122;28;20180;-54
2022/07/28 05:46:10;;;;;;;4.50;3.87;;;;;;;;;;5051893;28;20247;-53
2022/07/28 05:48:36;;;;;;;10.23;5.43;;;;;;;;;;5051877;28;20185;-53
2022/07/28 05:51:05;;;;;;;7.90;5.53;;;;;;;;;;5051319;28;20981;-53
2022/07/28 05:53:31;;;;;;;4.57;4.03;;;;;;;;;;5060968;28;20462;-52
2022/07/28 05:55:57;;;;;;;5.20;4.00;;;17.90;1.00;;;;;;5072467;28;20915;-55
2022/07/28 05:58:23;;;;;;;6.57;4.23;;;17.90;1.00;;;;;;5053519;28;20442;-55
2022/07/28 06:00:49;;;;;;;5.10;4.10;;;18.10;1.00;;;;;;5051746;28;21295;-55
2022/07/28 06:03:15;;;;;;;10.10;4.20;;;18.00;1.00;;;;;;5053640;28;20482;-54
2022/07/28 06:05:41;;;;;;;9.20;4.27;;;18.30;1.00;;;;;;5071899;28;20469;-57
2022/07/28 06:08:07;;;;;;;8.03;4.83;;;18.40;1.00;;;;;;5069128;28;20187;-55
2022/07/28 06:13:17;;;;;;;9.20;5.47;;;18.70;1.00;;;;;;5065932;28;20512;-53
2022/07/28 06:15:45;;;;;;;8.73;5.60;;;19.10;1.00;;;;;;5065869;28;21163;-55
2022/07/28 06:18:12;;;;;;;7.00;5.27;;;19.10;1.00;;;;;;5051365;28;20538;-55
2022/07/28 06:20:37;;;;;;;10.13;4.50;;;18.90;1.00;;;;;;5049798;28;20479;-55
2022/07/28 06:23:04;;;;;;;10.43;5.30;;;19.00;1.00;;;;;;5051145;28;20446;-56
2022/07/28 06:25:30;;;;;;;7.23;5.27;;;;;;;;;;5047783;28;20192;-53
2022/07/28 06:27:59;;;;;;;8.83;4.77;;;19.60;1.00;;;;;;5067785;28;20430;-53
2022/07/28 06:30:25;;;;;;;6.73;4.70;;;19.70;1.00;;;;;;5051226;28;20474;-52
2022/07/28 06:32:52;;;;;;;9.10;4.73;;;19.80;1.00;;;;;;5051904;28;20484;-54
2022/07/28 06:35:18;;;;;;;5.53;4.63;;;19.90;1.00;;;;;;5050483;28;21053;-56
2022/07/28 06:37:44;;;;;;;6.30;4.33;;;20.20;1.00;;;;;;5050703;28;20442;-55
2022/07/28 06:40:11;;;;;;;13.87;5.00;;;20.30;1.00;;;;;;5049453;28;20458;-53
2022/07/28 06:42:37;;;;;;;6.30;5.40;;;20.30;1.00;;;;;;5051576;28;20522;-55
2022/07/28 06:45:05;;;;;;;12.40;5.23;;;19.80;1.00;;;;;;5049810;28;20500;-56
2022/07/28 06:47:31;;;;;;;8.07;5.20;;;;;;;;;;5050732;28;20470;-55
2022/07/28 06:49:57;;;;;;;10.67;5.73;;;19.80;1.00;;;;;;5049414;28;20458;-57
2022/07/28 06:52:23;;;;;;;9.10;5.33;;;;;;;;;;5049321;28;20438;-54
2022/07/28 06:54:50;;;;;;;8.53;5.20;;;20.00;1.00;;;;;;5049334;28;20246;-55
2022/07/28 06:57:20;;;;;;;7.80;6.10;;;19.60;1.00;;;;;;5056960;28;20450;-55
2022/07/28 06:59:46;;;;;;;6.03;4.63;;;;;;;;;;5053931;28;20488;-54
2022/07/28 07:02:13;;;;;;;10.57;5.10;;;19.90;1.00;;;;;;5053396;28;20847;-53
2022/07/28 07:04:38;;;;;;;7.80;4.87;;;20.10;1.00;;;;;;5054268;28;20493;-53
2022/07/28 07:07:04;;;;;;;9.23;5.50;;;20.50;1.00;;;;;;5050562;28;20968;-56
2022/07/28 07:09:30;;;;;;;6.33;4.83;;;20.70;1.00;;;;;;5049813;28;20208;-55
2022/07/28 07:11:56;;;;;;;8.17;4.80;;;;;;;;;;5050698;28;20340;-55
2022/07/28 07:14:22;;;;;;;14.10;5.57;;;;;;;;;;5050069;28;20939;-56
2022/07/28 07:16:49;;;;;;;8.10;4.97;;;21.20;1.00;;;;;;5052628;28;20964;-53
2022/07/28 07:19:15;;;;;;;7.50;5.10;;;;;;;;;;5049418;28;20485;-57
2022/07/28 07:21:41;;;;;;;10.10;6.20;;;21.30;1.00;;;;;;5050447;28;20434;-54
2022/07/28 07:24:07;;;;;;;6.57;5.33;;;21.20;1.00;;;;;;5048952;28;20471;-55
2022/07/28 07:26:32;;;;;;;6.20;4.70;;;21.20;1.00;;;;;;5050489;28;20204;-56
2022/07/28 07:28:58;;;;;;;4.90;4.40;;;21.30;1.00;;;;;;5049214;28;20843;-53
2022/07/28 07:31:23;;;;;;;6.30;4.37;;;21.50;1.00;;;;;;5048514;28;20192;-57
2022/07/28 07:33:49;;;;;;;5.50;4.43;;;21.60;1.00;;;;;;5048792;28;20633;-56
2022/07/28 07:36:15;;;;;;;6.70;3.80;;;21.80;1.00;;;;;;5051804;28;20184;-56
2022/07/28 07:38:40;;;;;;;8.10;4.63;;;22.10;1.00;;;;;;5050484;28;20195;-53
2022/07/28 07:41:06;;;;;;;7.60;5.10;;;22.20;1.00;;;;;;5057029;28;20206;-55
2022/07/28 07:43:32;;;;;;;10.73;4.80;;;22.30;1.00;;;;;;5052276;28;20742;-56
2022/07/28 07:45:57;;;;;;;8.00;4.50;;;22.60;1.00;;;;;;5049550;28;20211;-55
2022/07/28 07:48:23;;;;;;;6.50;4.77;;;22.90;1.00;;;;;;5061832;28;20187;-56
2022/07/28 07:50:48;;;;;;;5.70;4.47;;;23.20;1.00;;;;;;5049707;28;20192;-56
2022/07/28 07:53:14;;;;;;;9.93;4.70;;;23.40;1.00;;;;;;5049688;28;20184;-55
2022/07/28 07:55:40;;;;;;;6.80;3.90;;;;;;;;;;5048423;28;20250;-54
2022/07/28 07:58:06;;;;;;;8.00;3.70;;;23.80;1.00;;;;;;5050013;28;20537;-55
2022/07/28 08:00:32;;;;;;;7.50;3.80;;;;;;;;;;5049688;28;20446;-56
2022/07/28 08:02:57;;;;;;;4.77;3.50;;;23.60;1.00;;;;;;5050012;28;20212;-56
2022/07/28 08:05:23;;;;;;;10.00;5.00;;;23.70;1.00;;;;;;5047865;28;21017;-57
2022/07/28 08:07:49;;;;;;;5.67;4.30;;;23.70;1.00;;;;;;5054158;28;20731;-52
2022/07/28 08:10:14;;;;;;;6.00;4.50;;;23.70;1.00;;;;;;5059672;28;20599;-53
2022/07/28 08:12:40;;;;;;;7.87;3.60;;;23.60;1.00;;;;;;5057654;28;20617;-53
2022/07/28 08:15:07;;;;;;;6.53;3.73;;;23.70;1.00;;;;;;5049600;28;20183;-55
2022/07/28 08:17:32;;;;;;;7.23;3.93;;;23.90;1.00;;;;;;5050161;28;20211;-54
2022/07/28 08:19:58;;;;;;;6.13;4.60;;;;;;;;;;5053900;28;20441;-55
2022/07/28 08:22:24;;;;;;;12.00;4.53;;;;;;;;;;5050628;28;20183;-53
2022/07/28 08:24:51;;;;;;;7.00;4.90;;;;;;;;;;5049058;28;20935;-53
2022/07/28 08:27:17;;;;;;;5.60;4.10;;;23.90;1.00;;;;;;5066975;28;20992;-53
2022/07/28 08:29:42;;;;;;;6.50;4.30;;;23.90;1.00;;;;;;5069508;28;20567;-52
2022/07/28 08:32:08;;;;;;;9.27;4.20;;;;;;;;;;5051094;28;20438;-54
2022/07/28 08:34:34;;;;;;;7.10;4.57;;;24.20;1.00;;;;;;5049459;28;20290;-54
2022/07/28 08:37:02;;;;;;;8.23;3.90;;;24.20;1.00;;;;;;5049668;28;20895;-54
2022/07/28 08:39:30;;;;;;;4.10;3.43;;;24.10;1.00;;;;;;5049788;28;20438;-55
2022/07/28 08:42:04;;;;;;;4.13;2.50;;;24.40;1.00;;;;;;5048864;28;21145;-55
2022/07/28 08:44:53;;;;;;;7.03;2.50;;;24.60;1.00;;;;;;5067594;28;20780;-58
2022/07/28 08:47:20;;;;;;;4.50;2.97;;;27.50;1.00;;;;;;5069296;28;20473;-53
2022/07/28 08:49:47;;;;;;;4.00;2.60;;;24.40;1.00;;;;;;5069529;28;20458;-56
2022/07/28 08:52:13;;;;;;;3.43;2.50;;;24.20;1.00;;;;;;5069133;28;20429;-54
2022/07/28 08:54:43;;;;;;;10.17;2.93;;;24.50;1.00;;;;;;5069499;28;20444;-55
2022/07/28 08:57:16;;;;;;;6.73;2.93;;;24.70;1.00;;;;;;5069699;28;20436;-55
2022/07/28 08:59:43;;;;;;;6.43;2.80;;;24.50;1.00;;;;;;5051721;28;20450;-55
2022/07/28 09:02:11;;;;;;;3.63;2.53;;;24.40;1.00;;;;;;5066966;28;20492;-58
2022/07/28 09:04:38;;;;;;;3.40;2.60;;;;;;;;;;5063691;28;20589;-56
2022/07/28 09:07:04;;;;;;;4.37;2.30;;;;;;;;;;5053271;28;20473;-56
2022/07/28 09:09:31;;;;;;;5.03;2.60;;;24.70;1.00;;;;;;5052933;28;20792;-54
2022/07/28 09:11:58;;;;;;;4.17;2.60;;;24.50;1.00;;;;;;5053217;28;20442;-57
2022/07/28 09:14:24;;;;;;;4.40;2.10;;;24.50;1.00;;;;;;5053122;28;20462;-55
2022/07/28 09:16:50;;;;;;;3.20;2.50;;;;;;;;;;5049427;28;20446;-54
2022/07/28 09:19:16;;;;;;;4.50;2.73;;;;;;;;;;5069704;28;20466;-57
2022/07/28 09:21:42;;;;;;;4.70;2.13;;;25.00;1.00;;;;;;5072518;28;20795;-56
2022/07/28 09:24:08;;;;;;;2.17;1.70;;;;;;;;;;5072776;28;20429;-54
2022/07/28 09:26:34;;;;;;;3.30;2.03;;;;;;;;;;5072820;28;20200;-55
2022/07/28 09:29:02;;;;;;;5.37;2.20;;;;;;;;;;5072998;28;20504;-55
2022/07/28 09:31:29;;;;;;;5.93;2.23;;;25.30;1.00;;;;;;5073022;28;20757;-55
2022/07/28 09:33:59;;;;;;;3.80;2.70;;;25.00;1.00;;;;;;5054705;28;20442;-55
2022/07/28 09:36:25;;;;;;;5.07;2.50;;;;;;;;;;5053104;28;20461;-55
2022/07/28 09:38:51;;;;;;;4.80;2.63;;;24.80;1.00;;;;;;5052376;28;20505;-58
2022/07/28 09:41:20;;;;;;;5.07;2.70;;;25.00;1.00;;;;;;5052982;28;20486;-56
2022/07/28 09:43:46;;;;;;;5.57;3.00;;;;;;;;;;5052030;28;20854;-55
2022/07/28 09:46:15;;;;;;;3.17;1.70;;;25.60;1.00;;;;;;5052449;28;20477;-57
2022/07/28 09:48:57;;;;;;;7.63;1.80;;;25.70;1.00;;;;;;5051952;28;20500;-56
2022/07/28 09:51:31;;;;;;;4.70;1.60;;;25.70;1.00;;;;;;5051392;28;20441;-56
2022/07/28 09:54:11;;;;;;;3.37;1.63;;;25.30;1.00;;;;;;5052085;28;20452;-54
2022/07/28 09:56:39;;;;;;;3.47;1.37;;;24.60;1.00;;;;;;5055058;28;20779;-54
2022/07/28 09:59:06;;;;;;;3.90;1.30;;;;;;;;;;5060056;28;20441;-54
2022/07/28 10:01:33;;;;;;;2.50;1.53;;;24.20;1.00;;;;;;5052186;28;20453;-56
2022/07/28 10:04:00;;;;;;;3.20;1.20;;;24.50;1.00;;;;;;5051851;28;20449;-54
2022/07/28 10:06:33;;;;;;;3.63;1.30;;;25.10;1.00;;;;;;5051316;28;20492;-55
2022/07/28 10:09:06;;;;;;;4.30;1.23;;;25.70;1.00;;;;;;5058415;28;20454;-54
2022/07/28 10:11:32;;;;;;;4.03;1.43;;;26.10;1.00;;;;;;5052144;28;20438;-53
2022/07/28 10:14:05;;;;;;;2.53;1.50;;;26.50;1.00;;;;;;5049984;28;20504;-54
2022/07/28 10:16:33;;;;;;;2.53;1.10;;;26.30;1.00;;;;;;5052088;28;20203;-53
2022/07/28 10:19:04;;;;;;;2.93;1.03;;;26.10;1.00;;;;;;5057937;28;20579;-55
2022/07/28 10:21:45;;;;;;;3.07;1.13;;;25.90;1.00;;;;;;5051018;28;20507;-53
2022/07/28 10:24:21;;;;;;;1.50;1.10;;;25.90;1.00;;;;;;5049954;28;20517;-56
2022/07/28 10:26:47;;;;;;;3.80;1.20;;;26.00;1.00;;;;;;5050575;28;20466;-54
2022/07/28 10:29:15;;;;;;;1.77;1.13;;;26.20;1.00;;;;;;5050784;28;20780;-55
2022/07/28 10:31:56;;;;;;;1.20;1.00;;;26.50;1.00;;;;;;5047912;28;20435;-55
2022/07/28 10:34:26;;;;;;;1.30;0.90;;;26.50;1.00;;;;;;5051077;28;20455;-54
2022/07/28 10:36:55;;;;;;;2.37;1.23;;;25.90;1.00;;;;;;5051101;28;20431;-56
2022/07/28 10:39:24;;;;;;;4.33;1.03;;;26.00;1.00;;;;;;5052056;28;20438;-56
2022/07/28 10:41:50;;;;;;;4.00;1.37;;;26.00;1.00;;;;;;5063537;28;20768;-56
2022/07/28 10:44:18;;;;;;;2.33;1.30;;;26.00;1.00;;;;;;5052973;28;20446;-53
2022/07/28 10:46:44;;;;;;;2.57;1.20;;;26.10;1.00;;;;;;5061200;28;20461;-54
2022/07/28 10:49:12;;;;;;;1.70;1.10;;;26.00;1.00;;;;;;5049570;28;20450;-56
2022/07/28 10:51:41;;;;;;;1.70;1.20;;;25.80;1.00;;;;;;5049826;28;20441;-56
2022/07/28 10:54:10;;;;;;;3.03;0.93;;;;;;;;;;5049698;28;20453;-55
2022/07/28 10:56:56;;;;;;;2.07;1.03;;;26.10;1.00;;;;;;5052475;28;20608;-52
2022/07/28 10:59:49;;;;;;;2.20;1.17;;;26.40;1.00;;;;;;5049352;28;20996;-55
2022/07/28 11:02:48;;;;;;;3.20;1.20;;;26.70;1.00;;;;;;5048222;28;20446;-53
2022/07/28 11:05:37;;;;;;;3.70;1.40;;;26.70;1.00;;;;;;5050763;28;20762;-56
2022/07/28 11:08:08;;;;;;;2.07;1.20;;;26.40;1.00;;;;;;5048887;28;20513;-52
2022/07/28 11:10:43;;;;;;;2.13;1.40;;;26.00;1.00;;;;;;5049814;28;20539;-52
2022/07/28 11:13:22;;;;;;;2.80;1.23;;;25.80;1.00;;;;;;5049299;28;20438;-56
2022/07/28 11:15:47;;;;;;;2.28;1.17;;;25.90;1.00;;;;;;5049866;28;20548;-55
2022/07/28 11:18:13;;;;;;;2.90;1.17;;;26.00;1.00;;;;;;5050176;28;20271;-53
2022/07/28 11:20:51;;;;;;;2.93;1.70;;;26.30;1.00;;;;;;5066158;28;20564;-54
2022/07/28 11:23:39;;;;;;;1.70;0.80;;;26.80;1.00;;;;;;5081475;28;20180;-55
2022/07/28 11:26:23;;;;;;;3.30;1.20;;;;;;;;;;5047978;28;20469;-54
2022/07/28 11:29:07;;;;;;;2.23;1.00;;;27.00;1.00;;;;;;5050358;28;20450;-54
2022/07/28 11:31:47;;;;;;;3.80;1.10;;;27.30;1.00;;;;;;5048362;28;20445;-54
2022/07/28 11:34:23;;;;;;;3.10;1.00;;;27.10;1.00;;;;;;5050484;28;20535;-57
2022/07/28 11:37:01;;;;;;;1.37;1.27;;;;;;;;;;5050437;28;20446;-54
2022/07/28 11:39:41;;;;;;;2.97;1.23;;;26.90;1.00;;;;;;5048911;28;20449;-52
2022/07/28 11:42:27;;;;;;;2.83;1.23;;;27.10;1.00;;;;;;5049433;28;20447;-56
2022/07/28 11:44:54;;;;;;;2.90;1.70;;;27.00;1.00;;;;;;5049516;28;20437;-54
2022/07/28 11:47:24;;;;;;;4.00;1.43;;;26.80;1.00;;;;;;5048861;28;20874;-54
2022/07/28 11:50:09;;;;;;;4.43;1.20;;;26.80;1.00;;;;;;5048307;28;20447;-57
2022/07/28 11:52:35;;;;;;;5.57;1.30;;;26.90;1.00;;;;;;5050021;28;20434;-55
2022/07/28 11:55:02;;;;;;;4.47;1.20;;;27.10;1.00;;;;;;5049985;28;20675;-53
2022/07/28 11:57:28;;;;;;;2.80;1.10;;;;;;;;;;5050311;28;20514;-54
2022/07/28 11:59:57;;;;;;;2.50;1.43;;;26.80;1.00;;;;;;5053393;28;20434;-56
2022/07/28 12:02:25;;;;;;;3.20;1.30;;;26.70;1.00;;;;;;5049975;28;20768;-52
2022/07/28 12:05:07;;;;;;;3.10;1.43;;;26.80;1.00;;;;;;5049672;28;20489;-55
2022/07/28 12:07:35;;;;;;;2.70;1.13;;;26.70;1.00;;;;;;5051038;28;21056;-53
2022/07/28 12:10:20;;;;;;;4.40;1.30;;;26.70;1.00;;;;;;5047585;28;20454;-56
2022/07/28 12:12:54;;;;;;;3.00;1.37;;;26.70;1.00;;;;;;5049102;28;20492;-56
2022/07/28 12:15:20;;;;;;;2.20;1.33;;;26.40;1.00;;;;;;5050886;28;20438;-55
2022/07/28 12:17:47;;;;;;;6.20;1.43;;;26.40;1.00;;;;;;5048358;28;20443;-54
2022/07/28 12:20:15;;;;;;;5.70;1.50;;;26.60;1.00;;;;;;5048975;28;20446;-53
2022/07/28 12:22:54;;;;;;;3.30;1.60;;;26.60;1.00;;;;;;5047440;28;20453;-56
2022/07/28 12:25:19;;;;;;;2.50;1.53;;;26.50;1.00;;;;;;5049726;28;21006;-55
2022/07/28 12:27:45;;;;;;;2.10;1.23;;;;;;;;;;5049105;28;20597;-55
2022/07/28 12:30:12;;;;;;;3.60;1.50;;;26.60;1.00;;;;;;5049749;28;20558;-53
2022/07/28 12:32:38;;;;;;;1.93;1.10;;;;;;;;;;5049286;28;20564;-55
2022/07/28 12:35:04;;;;;;;2.10;1.20;;;26.60;1.00;;;;;;5049930;28;20999;-56
2022/07/28 12:37:30;;;;;;;7.43;1.47;;;26.50;1.00;;;;;;5048723;28;20541;-55
2022/07/28 12:39:56;;;;;;;1.67;0.90;;;26.40;1.00;;;;;;5051486;28;20448;-56
2022/07/28 12:42:23;;;;;;;2.20;1.60;;;;;;;;;;5048889;28;20196;-54
2022/07/28 12:44:52;;;;;;;3.13;1.27;;;26.90;1.00;;;;;;5048618;28;20450;-53
2022/07/28 12:47:26;;;;;;;1.90;1.20;;;26.90;1.00;;;;;;5048333;28;20473;-51
2022/07/28 12:50:14;;;;;;;3.00;1.30;;;26.60;1.00;;;;;;5049059;28;20808;-55
2022/07/28 12:52:44;;;;;;;2.33;1.30;;;26.60;1.00;;;;;;5047754;28;20417;-54
2022/07/28 12:55:25;;;;;;;2.43;1.20;;;26.60;1.00;;;;;;5060965;28;20442;-55
2022/07/28 12:57:52;;;;;;;9.10;1.43;;;27.00;1.00;;;;;;5048163;28;20988;-55
2022/07/28 13:00:33;;;;;;;2.40;1.47;;;27.00;1.00;;;;;;5062104;28;20437;-56
2022/07/28 13:03:19;;;;;;;2.63;1.30;;;27.00;1.00;;;;;;5079655;28;20421;-55
2022/07/28 13:06:01;;;;;;;3.77;1.23;;;;;;;;;;5047387;28;20453;-53
2022/07/28 13:08:27;;;;;;;2.80;1.20;;;;;;;;;;5044976;28;20446;-51
2022/07/28 13:10:53;;;;;;;5.93;1.93;;;;;;;;;;5047888;28;20429;-55
2022/07/28 13:13:19;;;;;;;1.63;1.03;;;26.60;1.00;;;;;;5047046;28;20450;-55
2022/07/28 13:16:12;;;;;;;2.80;1.20;;;26.50;1.00;;;;;;5046894;28;20500;-54
2022/07/28 13:18:45;;;;;;;3.70;1.50;;;26.50;1.00;;;;;;5049336;28;20521;-55
2022/07/28 13:21:11;;;;;;;2.87;1.13;;;;;;;;;;5048610;28;20446;-55
2022/07/28 13:23:37;;;;;;;3.70;1.60;;;;;;;;;;5049140;28;20524;-54
2022/07/28 13:26:06;;;;;;;3.57;2.37;;;27.10;1.00;;;;;;5049247;28;20434;-56
2022/07/28 13:28:32;;;;;;;3.53;1.30;;;;;;;;;;5049278;28;20438;-55
2022/07/28 13:30:58;;;;;;;3.70;1.83;;;;;;;;;;5048868;28;20780;-54
2022/07/28 13:33:25;;;;;;;5.70;1.33;;;;;;;;;;5049027;28;20446;-55
2022/07/28 13:35:52;;;;;;;2.93;1.37;;;27.50;1.00;;;;;;5049246;28;20465;-55
2022/07/28 13:38:18;;;;;;;2.13;1.40;;;;;;;;;;5048096;28;20442;-53